x

Neah Bay, - 6nm North Of Cape Flattery, Wa (traffic Separation Lighted Buoy) (46087) Wave Buoy

10:20pm - Fri 24th Nov 2017 All times are PST. -8 hours from GMT.

  • Sig Wave height 8.9ft
  • Swell Direction
  • Peak Period 10s
  • Average Period 7s
  • Wind
    18mph, 22mph gusts
  • Sea Temp 52°f
  • Air Temp 52°f
  • Sea Pressure 1014.7mb
  • Neah Bay, - 6nm North Of Cape Flattery, Wa     (traffic Separation Lighted Buoy)
  • Neah Bay, - 6nm North Of Cape Flattery, Wa     (traffic Separation Lighted Buoy)

More Historic Weather Station data

Upgrade to MSW Pro to gain access to the past 30 days of data for over 8000 Wavebouys and Weather Stations around the globe.

Join

Comparision Forecast

View Surf forecast
   
Fri 11/24 10:20pm 9ft 10s 7s 18 22 mph 1014.7mb 52f 52f
9:50pm 8.5ft 9s 7s 22 27 mph 1014.4mb 52f 52f
9:20pm 8.5ft 10s 7s 20 27 mph 1014.2mb 52f 52f
8:50pm 8ft 8s 7s 20 22 mph 1014.3mb 52f 52f
8:20pm 7ft 10s 7s 18 25 mph 1014.2mb 52f 52f
7:50pm 7ft 8s 7s 18 25 mph 1013.9mb 52f 52f
7:20pm 6.5ft 8s 6s 16 20 mph 1013.7mb 52f 52f
6:50pm 7ft 10s 6s 13 18 mph 1013.9mb 52f 51f
6:20pm 7ft 10s 6s 18 20 mph 1014mb 52f 51f
5:50pm 7.5ft 9s 6s 22 27 mph 1013.9mb 52f 52f
5:20pm 7ft 10s 6s 20 25 mph 1013.6mb 52f 52f
4:50pm 7ft 11s 6s 22 27 mph 1013.6mb 52f 52f
4:20pm 6.5ft 9s 6s 20 25 mph 1013.7mb 52f 52f
3:50pm 7ft 8s 6s 18 25 mph 1013.8mb 52f 51f
3:20pm 7ft 8s 6s 20 25 mph 1013.9mb 52f 51f
2:50pm 6.5ft 8s 6s 20 25 mph 1013.8mb 52f 52f
2:20pm 6ft 9s 6s 20 25 mph 1013.9mb 52f 52f
1:50pm 6ft 8s 6s 18 22 mph 1014.1mb 52f 52f
1:20pm 6ft 10s 6s 18 27 mph 1014.5mb 52f 51f
12:50pm 6ft 9s 6s 22 29 mph 1014.4mb 52f 51f
12:20pm 6ft 9s 6s 22 27 mph 1014.4mb 52f 51f
11:50am 6ft 9s 6s 25 29 mph 1014.5mb 52f 51f
11:20am 6ft 9s 7s 16 20 mph 1014.8mb 52f 51f
10:50am 6ft 9s 6s 20 22 mph 1014.7mb 52f 51f
10:20am 6ft 11s 6s 20 25 mph 1014.6mb 52f 52f
9:50am 7ft 9s 6s 22 27 mph 1014.3mb 52f 53f
9:20am 6ft 10s 6s 22 27 mph 1014.3mb 52f 53f
8:50am 6.5ft 11s 6s 22 27 mph 1014.2mb 52f 52f
8:20am 6ft 9s 6s 22 27 mph 1014mb 52f 52f
7:50am 6.5ft 9s 6s 13 22 mph 1014.3mb 52f 50f
7:20am 6ft 11s 6s 20 22 mph 1014.1mb 52f 51f
6:50am 7ft 10s 6s 20 27 mph 1014mb 52f 51f
6:20am 7.5ft 10s 6s 20 25 mph 1014mb 52f 52f
5:50am 7ft 10s 6s 20 22 mph 1014mb 52f 52f
5:20am 7ft 10s 6s 20 22 mph 1014.1mb 52f 52f
4:50am 7ft 11s 6s 20 25 mph 1014mb 52f 51f
4:20am 7ft 11s 6s 13 16 mph 1013.9mb 52f 50f
3:50am 7ft 8s 6s 18 22 mph 1014mb 52f 51f
3:20am 7.5ft 11s 7s 18 22 mph 1014mb 52f 51f
2:50am 7.5ft 10s 7s 16 20 mph 1013.9mb 52f 51f
2:20am 8ft 9s 7s 16 20 mph 1013.9mb 52f 51f
1:50am 7.5ft 10s 6s 11 13 mph 1013.9mb 52f 49f
1:20am 7.5ft 9s 7s 18 20 mph 1013.7mb 52f 51f
12:50am 7.5ft 9s 7s 16 18 mph 1013.5mb 52f 50f
12:20am 7ft 11s 7s 18 20 mph 1013.3mb 52f 50f
Thu 11/23 11:50pm 7ft 10s 7s 20 25 mph 1013mb 52f 51f
11:20pm 7.5ft 8s 7s 13 18 mph 1012.9mb 52f 51f
10:50pm 7ft 9s 7s 18 20 mph 1012.7mb 52f 49f
10:20pm 7ft 9s 7s 18 22 mph 1012.4mb 52f 51f
9:50pm 6.5ft 8s 7s 18 20 mph 1012mb 52f 51f
9:20pm 7ft 10s 7s 22 29 mph 1011.6mb 52f 49f
8:50pm 7ft 10s 6s 18 22 mph 1011.3mb 52f 51f
8:20pm 6.5ft 9s 6s 22 27 mph 1010.9mb 52f 50f
7:50pm 6ft 9s 6s 18 22 mph 1010.6mb 52f 51f
7:20pm 6.5ft 9s 6s 18 22 mph 1010.4mb 52f 51f
6:50pm 6ft 10s 6s 18 22 mph 1010mb 52f 51f
6:20pm 7ft 10s 6s 18 22 mph 1009.8mb 52f 52f
5:20pm 6.5ft 10s 6s 20 22 mph 1009.2mb 52f 52f
4:50pm 6.5ft 10s 6s 20 25 mph 1008.9mb 52f 52f
4:20pm 7ft 11s 7s 16 20 mph 1008.9mb 52f 52f
3:50pm 7ft 11s 7s 18 20 mph 1008.6mb 52f 52f
3:20pm 7ft 9s 7s 18 22 mph 1008.5mb 52f 52f
2:50pm 6.5ft 11s 7s 20 22 mph 1008.5mb 53f 53f
2:20pm 6.5ft 10s 7s 20 25 mph 1008.4mb 53f 53f
1:50pm 6.5ft 11s 8s 18 20 mph 1008.4mb 53f 53f
1:20pm 6ft 11s 8s 16 20 mph 1008.6mb 52f 53f
12:50pm 5.5ft 11s 8s 13 16 mph 1008.6mb 52f 53f
12:20pm 5.5ft 11s 8s 13 16 mph 1008.8mb 52f 53f
11:50am 5.5ft 11s 8s 13 16 mph 1008.8mb 52f 53f
11:20am 5ft 11s 8s 11 13 mph 1008.9mb 52f 53f
10:50am 5ft 11s 8s 11 13 mph 1008.9mb 52f 53f
10:20am 4.5ft 11s 8s 11 13 mph 1008.7mb 52f 53f
9:50am 4.5ft 11s 8s 9 11 mph 1008.7mb 52f 53f
9:20am 4.5ft 12s 8s 9 11 mph 1008.6mb 52f 52f
8:50am 4.5ft 11s 8s 11 13 mph 1008.3mb 52f 53f
8:20am 4.5ft 11s 8s 11 13 mph 1008.4mb 52f 53f
7:50am 4.5ft 12s 7s 11 11 mph 1008.4mb 52f 53f
7:20am 4.5ft 11s 8s 13 18 mph 1008.5mb 52f 53f
6:50am 4.5ft 12s 7s 16 18 mph 1008.1mb 52f 53f
6:20am 4.5ft 11s 7s 16 16 mph 1008mb 52f 53f
5:50am 5ft 11s 7s 16 20 mph 1008.2mb 52f 54f
5:20am 5ft 11s 7s 16 18 mph 1008.3mb 52f 53f
4:50am 6ft 11s 7s 16 20 mph 1008.4mb 52f 53f
4:20am 6ft 11s 7s 18 20 mph 1008.3mb 52f 54f
3:50am 7ft 11s 7s 18 20 mph 1008.5mb 52f 53f
3:20am 8ft 11s 7s 20 25 mph 1008.6mb 52f 53f
2:50am 8.5ft 11s 7s 18 22 mph 1008.8mb 52f 54f
2:20am 8.5ft 10s 7s 22 29 mph 1008.8mb 52f 54f
1:50am 9.5ft 11s 8s 20 25 mph 1008.8mb 52f 54f
1:20am 8ft 11s 8s 18 22 mph 1008.8mb 52f 54f
12:50am 9ft 11s 8s 16 20 mph 1008.9mb 52f 54f
12:20am 9ft 10s 8s 16 20 mph 1009.1mb 52f 54f
Wed 11/22 11:50pm 8ft 10s 8s 16 20 mph 1009.2mb 52f 54f
11:20pm 8ft 10s 8s 18 20 mph 1009mb 53f 54f
10:50pm 8ft 11s 7s 18 22 mph 1008.8mb 53f 54f
10:20pm 8ft 11s 7s 18 22 mph 1008.6mb 53f 54f
9:50pm 7ft 10s 7s 20 25 mph 1008.7mb 53f 54f
9:20pm 7ft 11s 7s 22 29 mph 1008.5mb 53f 54f
8:50pm 8ft 11s 8s 22 27 mph 1008.3mb 53f 55f
8:20pm 7ft 11s 7s 22 27 mph 1008.2mb 53f 55f
7:50pm 7ft 11s 7s 22 27 mph 1008.1mb 53f 54f
7:20pm 6ft 11s 7s 18 25 mph 1008.1mb 53f 54f
6:50pm 6ft 11s 7s 22 29 mph 1008.1mb 53f 54f
6:20pm 6ft 15s 6s 27 31 mph 1007.9mb 53f 54f
5:50pm 7ft 11s 6s 27 31 mph 1007.6mb 53f 55f
5:20pm 6.5ft 11s 6s 29 36 mph 1007.4mb 53f 55f
4:50pm 7ft 12s 6s 34 40 mph 1006.9mb 53f 57f
4:20pm 6.5ft 12s 6s 36 43 mph 1006.9mb 53f 56f
3:50pm 7ft 11s 6s 36 45 mph 1006.9mb 52f 57f
3:20pm 7ft 11s 6s 34 43 mph 1006.7mb 52f 58f
2:50pm 7ft 11s 6s 31 40 mph 1007mb 52f 58f
2:20pm 7ft 11s 6s 29 36 mph 1007.6mb 52f 58f
1:50pm 7ft 10s 6s 31 38 mph 1007.9mb 53f 58f
1:20pm 7ft 10s 6s 29 36 mph 1008.3mb 53f 58f
12:50pm 7ft 14s 6s 29 43 mph 1008.5mb 52f 59f
12:20pm 7.5ft 11s 6s 27 34 mph 1009.3mb 52f 57f
11:50am 7ft 10s 7s 25 29 mph 1009.8mb 52f 58f
11:20am 8.5ft 11s 8s 25 31 mph 1010.2mb 52f 58f
10:50am 6.5ft 13s 8s 20 31 mph 1010mb 52f 58f
10:20am 6.5ft 13s 8s 11 13 mph 1010.4mb 52f 54f
9:50am 7ft 14s 8s 16 18 mph 1010mb 52f 53f
9:20am 7ft 10s 8s 13 18 mph 1010.3mb 52f 53f
8:50am 6ft 13s 8s 16 20 mph 1010.7mb 52f 53f
8:20am 6.5ft 11s 8s 16 18 mph 1010.5mb 52f 54f
7:50am 7ft 10s 8s 9 11 mph 1010.4mb 52f 55f
7:20am 6.5ft 11s 7s 11 18 mph 1010.3mb 52f 56f
6:50am 7ft 10s 8s 16 20 mph 1010.2mb 52f 57f
6:20am 7ft 11s 8s 16 25 mph 1010.6mb 52f 57f
5:50am 7.5ft 11s 8s 13 18 mph 1010.7mb 52f 57f
5:20am 7ft 11s 8s 13 18 mph 1010.8mb 52f 56f
4:50am 7.5ft 11s 8s 18 22 mph 1010.8mb 52f 57f
4:20am 6ft 14s 7s 20 27 mph 1010.8mb 52f 57f
3:50am 6ft 11s 7s 22 31 mph 1010.5mb 52f 57f
3:20am 6.5ft 14s 7s 22 27 mph 1010.5mb 52f 56f
2:50am 6.5ft 14s 7s 11 20 mph 1010.5mb 52f 54f
2:20am 7ft 14s 7s 13 18 mph 1010.3mb 52f 55f
1:50am 6.5ft 14s 7s 16 20 mph 1010.2mb 52f 56f
1:20am 6ft 10s 7s 18 22 mph 1010.1mb 52f 56f
12:50am 7ft 9s 7s 18 22 mph 1010.5mb 52f 56f
12:20am 7.5ft 10s 8s 18 22 mph 1010.8mb 52f 56f
Tue 11/21 11:50pm 7ft 9s 7s 18 22 mph 1010.7mb 52f 56f
10:50pm 7ft 10s 7s 18 25 mph 1010.7mb 52f 56f
9:50pm 7ft 10s 7s 25 29 mph 1009.7mb 52f 56f
8:50pm 6.5ft 10s 7s 25 29 mph 1008.6mb 52f 56f
8:20pm 6.5ft 10s 6s 27 34 mph 1008.3mb 52f 57f
7:50pm 6.5ft 9s 6s 27 31 mph 1007.9mb 52f 56f
7:20pm 6ft 10s 6s 27 31 mph 1007.4mb 52f 56f
6:50pm 6.5ft 9s 6s 29 34 mph 1007.3mb 52f 56f
6:20pm 6.5ft 9s 6s 29 36 mph 1006.6mb 52f 56f
5:50pm 6.5ft 9s 5s 31 36 mph 1006mb 52f 56f
5:20pm 6.5ft 9s 5s 25 29 mph 1006.1mb 51f 55f
4:50pm 6.5ft 8s 5s 29 36 mph 1005.9mb 51f 56f
4:20pm 6.5ft 8s 5s 25 31 mph 1006mb 51f 56f
3:50pm 6ft 6s 5s 22 29 mph 1005.4mb 51f 49f
3:20pm 6ft 6s 5s 27 31 mph 1004.8mb 51f 48f
2:50pm 6ft 6s 5s 31 36 mph 1004.4mb 51f 47f
2:20pm 5.5ft 6s 5s 31 36 mph 1004.5mb 51f 47f
1:50pm 6ft 6s 5s 31 38 mph 1004.7mb 51f 46f
1:20pm 6ft 6s 5s 34 38 mph 1005.1mb 51f 46f
12:50pm 6ft 6s 5s 34 40 mph 1005.9mb 52f 46f
12:20pm 6.5ft 6s 5s 36 40 mph 1006.1mb 52f 46f
11:50am 6.5ft 6s 5s 36 43 mph 1006.7mb 52f 46f
11:20am 6.5ft 6s 5s 36 45 mph 1008mb 52f 46f
10:50am 7ft 5s 5s 36 45 mph 1008.5mb 52f 46f
10:20am 7ft 6s 5s 34 43 mph 1008.9mb 52f 46f
9:50am 7ft 6s 5s 34 45 mph 1009.4mb 52f 46f
9:20am 6ft 6s 5s 31 38 mph 1010mb 52f 46f
8:50am 6ft 6s 5s 31 36 mph 1010.1mb 52f 46f
8:20am 5.5ft 6s 5s 31 38 mph 1010.2mb 51f 46f
7:50am 5.5ft 5s 5s 31 36 mph 1010.4mb 51f 46f